sensor_id;sensor_type;location;lat;lon;timestamp;P1;durP1;ratioP1;P2;durP2;ratioP2
50012;SDS011;35901;48.694;9.476;2022-11-04T00:01:53;6.77;;;5.70;;
50012;SDS011;35901;48.694;9.476;2022-11-04T00:04:20;5.77;;;5.23;;
50012;SDS011;35901;48.694;9.476;2022-11-04T00:06:47;6.77;;;4.97;;
50012;SDS011;35901;48.694;9.476;2022-11-04T00:09:20;5.73;;;5.13;;
50012;SDS011;35901;48.694;9.476;2022-11-04T00:11:47;5.47;;;4.90;;
50012;SDS011;35901;48.694;9.476;2022-11-04T00:14:32;6.97;;;4.97;;
50012;SDS011;35901;48.694;9.476;2022-11-04T00:16:58;5.47;;;4.97;;
50012;SDS011;35901;48.694;9.476;2022-11-04T00:19:43;5.60;;;5.10;;
50012;SDS011;35901;48.694;9.476;2022-11-04T00:22:37;5.67;;;4.83;;
50012;SDS011;35901;48.694;9.476;2022-11-04T00:25:24;5.93;;;4.80;;
50012;SDS011;35901;48.694;9.476;2022-11-04T00:28:10;5.37;;;4.50;;
50012;SDS011;35901;48.694;9.476;2022-11-04T00:30:55;5.30;;;4.77;;
50012;SDS011;35901;48.694;9.476;2022-11-04T00:33:22;6.03;;;4.83;;
50012;SDS011;35901;48.694;9.476;2022-11-04T00:35:52;6.33;;;4.73;;
50012;SDS011;35901;48.694;9.476;2022-11-04T00:38:19;5.37;;;4.63;;
50012;SDS011;35901;48.694;9.476;2022-11-04T00:40:45;5.03;;;4.30;;
50012;SDS011;35901;48.694;9.476;2022-11-04T00:43:10;5.70;;;4.60;;
50012;SDS011;35901;48.694;9.476;2022-11-04T00:45:38;4.30;;;3.90;;
50012;SDS011;35901;48.694;9.476;2022-11-04T00:48:05;6.00;;;4.50;;
50012;SDS011;35901;48.694;9.476;2022-11-04T00:50:31;6.70;;;4.73;;
50012;SDS011;35901;48.694;9.476;2022-11-04T00:52:57;5.23;;;4.33;;
50012;SDS011;35901;48.694;9.476;2022-11-04T00:55:24;5.17;;;4.40;;
50012;SDS011;35901;48.694;9.476;2022-11-04T00:57:50;5.80;;;4.23;;
50012;SDS011;35901;48.694;9.476;2022-11-04T01:00:15;5.13;;;4.63;;
50012;SDS011;35901;48.694;9.476;2022-11-04T01:02:41;5.03;;;4.40;;
50012;SDS011;35901;48.694;9.476;2022-11-04T01:05:07;5.70;;;5.07;;
50012;SDS011;35901;48.694;9.476;2022-11-04T01:07:33;5.13;;;4.50;;
50012;SDS011;35901;48.694;9.476;2022-11-04T01:09:59;5.53;;;4.30;;
50012;SDS011;35901;48.694;9.476;2022-11-04T01:12:24;4.60;;;4.20;;
50012;SDS011;35901;48.694;9.476;2022-11-04T01:14:50;4.80;;;4.30;;
50012;SDS011;35901;48.694;9.476;2022-11-04T01:17:15;5.37;;;4.37;;
50012;SDS011;35901;48.694;9.476;2022-11-04T01:19:41;4.67;;;4.27;;
50012;SDS011;35901;48.694;9.476;2022-11-04T01:22:07;4.30;;;3.67;;
50012;SDS011;35901;48.694;9.476;2022-11-04T01:24:32;3.70;;;3.40;;
50012;SDS011;35901;48.694;9.476;2022-11-04T01:26:58;4.50;;;3.50;;
50012;SDS011;35901;48.694;9.476;2022-11-04T01:29:24;3.30;;;3.00;;
50012;SDS011;35901;48.694;9.476;2022-11-04T01:31:49;3.67;;;2.90;;
50012;SDS011;35901;48.694;9.476;2022-11-04T01:34:15;3.23;;;2.87;;
50012;SDS011;35901;48.694;9.476;2022-11-04T01:36:41;3.37;;;3.07;;
50012;SDS011;35901;48.694;9.476;2022-11-04T01:39:10;5.30;;;3.60;;
50012;SDS011;35901;48.694;9.476;2022-11-04T01:41:36;4.00;;;3.27;;
50012;SDS011;35901;48.694;9.476;2022-11-04T01:44:03;3.10;;;2.87;;
50012;SDS011;35901;48.694;9.476;2022-11-04T01:46:49;3.10;;;2.80;;
50012;SDS011;35901;48.694;9.476;2022-11-04T01:52:11;2.83;;;2.63;;
50012;SDS011;35901;48.694;9.476;2022-11-04T01:54:41;2.70;;;2.50;;
50012;SDS011;35901;48.694;9.476;2022-11-04T01:57:10;3.43;;;2.53;;
50012;SDS011;35901;48.694;9.476;2022-11-04T01:59:40;2.77;;;2.50;;
50012;SDS011;35901;48.694;9.476;2022-11-04T02:02:06;2.70;;;2.50;;
50012;SDS011;35901;48.694;9.476;2022-11-04T02:04:32;2.60;;;2.40;;
50012;SDS011;35901;48.694;9.476;2022-11-04T02:06:59;2.30;;;2.10;;
50012;SDS011;35901;48.694;9.476;2022-11-04T02:09:29;2.37;;;2.17;;
50012;SDS011;35901;48.694;9.476;2022-11-04T02:11:56;2.77;;;2.20;;
50012;SDS011;35901;48.694;9.476;2022-11-04T02:14:40;2.20;;;2.00;;
50012;SDS011;35901;48.694;9.476;2022-11-04T02:30:35;2.00;;;1.90;;
50012;SDS011;35901;48.694;9.476;2022-11-04T02:41:09;2.00;;;1.80;;
50012;SDS011;35901;48.694;9.476;2022-11-04T02:44:00;2.00;;;1.77;;
50012;SDS011;35901;48.694;9.476;2022-11-04T02:49:16;2.30;;;1.80;;
50012;SDS011;35901;48.694;9.476;2022-11-04T02:51:52;1.37;;;1.33;;
50012;SDS011;35901;48.694;9.476;2022-11-04T02:57:27;1.60;;;1.50;;
50012;SDS011;35901;48.694;9.476;2022-11-04T02:59:59;1.50;;;1.40;;
50012;SDS011;35901;48.694;9.476;2022-11-04T03:02:35;1.87;;;1.60;;
50012;SDS011;35901;48.694;9.476;2022-11-04T03:05:14;1.43;;;1.33;;
50012;SDS011;35901;48.694;9.476;2022-11-04T03:07:43;1.47;;;1.37;;
50012;SDS011;35901;48.694;9.476;2022-11-04T03:10:18;1.93;;;1.30;;
50012;SDS011;35901;48.694;9.476;2022-11-04T03:12:59;2.20;;;1.20;;
50012;SDS011;35901;48.694;9.476;2022-11-04T03:15:30;1.50;;;1.40;;
50012;SDS011;35901;48.694;9.476;2022-11-04T03:18:01;1.43;;;1.33;;
50012;SDS011;35901;48.694;9.476;2022-11-04T03:20:47;1.37;;;1.27;;
50012;SDS011;35901;48.694;9.476;2022-11-04T03:23:15;1.43;;;1.30;;
50012;SDS011;35901;48.694;9.476;2022-11-04T03:25:45;1.30;;;1.30;;
50012;SDS011;35901;48.694;9.476;2022-11-04T03:30:50;1.40;;;1.30;;
50012;SDS011;35901;48.694;9.476;2022-11-04T03:33:39;1.60;;;1.40;;
50012;SDS011;35901;48.694;9.476;2022-11-04T03:36:11;1.47;;;1.30;;
50012;SDS011;35901;48.694;9.476;2022-11-04T03:38:36;1.20;;;1.20;;
50012;SDS011;35901;48.694;9.476;2022-11-04T03:41:04;2.17;;;1.40;;
50012;SDS011;35901;48.694;9.476;2022-11-04T03:43:36;1.60;;;1.50;;
50012;SDS011;35901;48.694;9.476;2022-11-04T03:46:04;1.27;;;1.17;;
50012;SDS011;35901;48.694;9.476;2022-11-04T03:48:30;1.67;;;1.30;;
50012;SDS011;35901;48.694;9.476;2022-11-04T03:50:57;1.40;;;1.30;;
50012;SDS011;35901;48.694;9.476;2022-11-04T03:53:23;1.50;;;1.40;;
50012;SDS011;35901;48.694;9.476;2022-11-04T04:01:51;1.70;;;1.20;;
50012;SDS011;35901;48.694;9.476;2022-11-04T04:04:27;1.80;;;1.20;;
50012;SDS011;35901;48.694;9.476;2022-11-04T04:07:11;1.30;;;1.20;;
50012;SDS011;35901;48.694;9.476;2022-11-04T04:09:47;1.20;;;1.20;;
50012;SDS011;35901;48.694;9.476;2022-11-04T04:12:37;1.30;;;1.20;;
50012;SDS011;35901;48.694;9.476;2022-11-04T04:17:49;1.53;;;1.43;;
50012;SDS011;35901;48.694;9.476;2022-11-04T04:20:19;1.30;;;1.20;;
50012;SDS011;35901;48.694;9.476;2022-11-04T04:22:58;1.20;;;1.20;;
50012;SDS011;35901;48.694;9.476;2022-11-04T04:25:49;1.20;;;1.10;;
50012;SDS011;35901;48.694;9.476;2022-11-04T04:28:34;1.10;;;1.00;;
50012;SDS011;35901;48.694;9.476;2022-11-04T04:31:02;1.33;;;1.20;;
50012;SDS011;35901;48.694;9.476;2022-11-04T04:33:28;1.10;;;1.10;;
50012;SDS011;35901;48.694;9.476;2022-11-04T04:35:54;1.23;;;1.13;;
50012;SDS011;35901;48.694;9.476;2022-11-04T04:38:23;1.20;;;1.10;;
50012;SDS011;35901;48.694;9.476;2022-11-04T04:41:16;1.20;;;1.10;;
50012;SDS011;35901;48.694;9.476;2022-11-04T04:44:08;0.90;;;0.90;;
50012;SDS011;35901;48.694;9.476;2022-11-04T04:47:04;1.03;;;1.00;;
50012;SDS011;35901;48.694;9.476;2022-11-04T04:49:30;1.93;;;1.30;;
50012;SDS011;35901;48.694;9.476;2022-11-04T04:52:03;1.20;;;1.20;;
50012;SDS011;35901;48.694;9.476;2022-11-04T04:54:31;2.57;;;1.43;;
50012;SDS011;35901;48.694;9.476;2022-11-04T04:56:56;1.70;;;1.30;;
50012;SDS011;35901;48.694;9.476;2022-11-04T04:59:22;1.40;;;1.30;;
50012;SDS011;35901;48.694;9.476;2022-11-04T05:01:48;1.53;;;1.43;;
50012;SDS011;35901;48.694;9.476;2022-11-04T05:04:13;1.43;;;1.33;;
50012;SDS011;35901;48.694;9.476;2022-11-04T05:06:39;2.87;;;1.60;;
50012;SDS011;35901;48.694;9.476;2022-11-04T05:09:05;2.93;;;1.70;;
50012;SDS011;35901;48.694;9.476;2022-11-04T05:11:30;1.77;;;1.67;;
50012;SDS011;35901;48.694;9.476;2022-11-04T05:13:56;2.00;;;1.80;;
50012;SDS011;35901;48.694;9.476;2022-11-04T05:16:22;2.27;;;1.50;;
50012;SDS011;35901;48.694;9.476;2022-11-04T05:18:49;1.87;;;1.57;;
50012;SDS011;35901;48.694;9.476;2022-11-04T05:21:16;1.70;;;1.60;;
50012;SDS011;35901;48.694;9.476;2022-11-04T05:23:42;2.10;;;1.87;;
50012;SDS011;35901;48.694;9.476;2022-11-04T05:26:07;2.57;;;1.70;;
50012;SDS011;35901;48.694;9.476;2022-11-04T05:28:33;1.80;;;1.57;;
50012;SDS011;35901;48.694;9.476;2022-11-04T05:31:02;1.60;;;1.50;;
50012;SDS011;35901;48.694;9.476;2022-11-04T05:33:29;2.20;;;2.00;;
50012;SDS011;35901;48.694;9.476;2022-11-04T05:35:59;1.60;;;1.50;;
50012;SDS011;35901;48.694;9.476;2022-11-04T05:38:30;3.00;;;2.30;;
50012;SDS011;35901;48.694;9.476;2022-11-04T05:40:59;4.53;;;2.97;;
50012;SDS011;35901;48.694;9.476;2022-11-04T05:43:24;3.73;;;3.37;;
50012;SDS011;35901;48.694;9.476;2022-11-04T05:45:50;3.57;;;3.00;;
50012;SDS011;35901;48.694;9.476;2022-11-04T05:48:16;4.67;;;2.90;;
50012;SDS011;35901;48.694;9.476;2022-11-04T05:50:41;2.97;;;2.77;;
50012;SDS011;35901;48.694;9.476;2022-11-04T05:53:07;2.80;;;2.60;;
50012;SDS011;35901;48.694;9.476;2022-11-04T05:55:32;2.60;;;2.40;;
50012;SDS011;35901;48.694;9.476;2022-11-04T05:57:58;2.20;;;2.00;;
50012;SDS011;35901;48.694;9.476;2022-11-04T06:00:24;2.80;;;2.60;;
50012;SDS011;35901;48.694;9.476;2022-11-04T06:02:51;3.60;;;2.50;;
50012;SDS011;35901;48.694;9.476;2022-11-04T06:05:17;2.60;;;2.40;;
50012;SDS011;35901;48.694;9.476;2022-11-04T06:07:43;2.90;;;2.40;;
50012;SDS011;35901;48.694;9.476;2022-11-04T06:10:09;3.03;;;2.50;;
50012;SDS011;35901;48.694;9.476;2022-11-04T06:12:35;2.77;;;2.50;;
50012;SDS011;35901;48.694;9.476;2022-11-04T06:15:00;2.20;;;2.10;;
50012;SDS011;35901;48.694;9.476;2022-11-04T06:17:26;2.73;;;2.53;;
50012;SDS011;35901;48.694;9.476;2022-11-04T06:19:52;2.90;;;2.60;;
50012;SDS011;35901;48.694;9.476;2022-11-04T06:22:18;3.23;;;2.53;;
50012;SDS011;35901;48.694;9.476;2022-11-04T06:24:44;3.27;;;2.97;;
50012;SDS011;35901;48.694;9.476;2022-11-04T06:30:18;2.93;;;2.73;;
50012;SDS011;35901;48.694;9.476;2022-11-04T06:32:43;4.10;;;2.50;;
50012;SDS011;35901;48.694;9.476;2022-11-04T06:35:09;3.40;;;3.10;;
50012;SDS011;35901;48.694;9.476;2022-11-04T06:37:34;3.10;;;2.90;;
50012;SDS011;35901;48.694;9.476;2022-11-04T06:40:01;4.40;;;3.10;;
50012;SDS011;35901;48.694;9.476;2022-11-04T06:42:27;4.37;;;3.20;;
50012;SDS011;35901;48.694;9.476;2022-11-04T06:44:53;4.53;;;3.70;;
50012;SDS011;35901;48.694;9.476;2022-11-04T06:47:18;5.93;;;5.33;;
50012;SDS011;35901;48.694;9.476;2022-11-04T06:49:44;4.50;;;3.93;;
50012;SDS011;35901;48.694;9.476;2022-11-04T06:52:10;3.67;;;3.30;;
50012;SDS011;35901;48.694;9.476;2022-11-04T06:54:35;3.77;;;3.40;;
50012;SDS011;35901;48.694;9.476;2022-11-04T06:57:13;3.27;;;2.97;;
50012;SDS011;35901;48.694;9.476;2022-11-04T06:59:39;5.63;;;5.13;;
50012;SDS011;35901;48.694;9.476;2022-11-04T07:02:04;7.17;;;6.53;;
50012;SDS011;35901;48.694;9.476;2022-11-04T07:04:31;5.90;;;5.40;;
50012;SDS011;35901;48.694;9.476;2022-11-04T07:06:56;4.53;;;4.13;;
50012;SDS011;35901;48.694;9.476;2022-11-04T07:09:22;4.47;;;4.17;;
50012;SDS011;35901;48.694;9.476;2022-11-04T07:11:47;4.13;;;3.77;;
50012;SDS011;35901;48.694;9.476;2022-11-04T07:14:13;5.33;;;3.77;;
50012;SDS011;35901;48.694;9.476;2022-11-04T07:16:39;4.60;;;3.43;;
50012;SDS011;35901;48.694;9.476;2022-11-04T07:19:05;4.03;;;3.73;;
50012;SDS011;35901;48.694;9.476;2022-11-04T07:21:31;4.27;;;3.87;;
50012;SDS011;35901;48.694;9.476;2022-11-04T07:23:56;4.47;;;4.07;;
50012;SDS011;35901;48.694;9.476;2022-11-04T07:26:22;4.10;;;3.23;;
50012;SDS011;35901;48.694;9.476;2022-11-04T07:28:48;4.23;;;3.43;;
50012;SDS011;35901;48.694;9.476;2022-11-04T07:31:14;2.93;;;2.63;;
50012;SDS011;35901;48.694;9.476;2022-11-04T07:33:41;4.17;;;3.30;;
50012;SDS011;35901;48.694;9.476;2022-11-04T07:36:08;3.73;;;2.90;;
50012;SDS011;35901;48.694;9.476;2022-11-04T07:38:36;4.80;;;3.70;;
50012;SDS011;35901;48.694;9.476;2022-11-04T07:41:02;5.60;;;4.73;;
50012;SDS011;35901;48.694;9.476;2022-11-04T07:43:28;6.77;;;5.70;;
50012;SDS011;35901;48.694;9.476;2022-11-04T07:46:02;7.10;;;5.30;;
50012;SDS011;35901;48.694;9.476;2022-11-04T07:48:33;6.20;;;5.33;;
50012;SDS011;35901;48.694;9.476;2022-11-04T07:51:00;7.13;;;5.93;;
50012;SDS011;35901;48.694;9.476;2022-11-04T07:53:28;7.30;;;6.10;;
50012;SDS011;35901;48.694;9.476;2022-11-04T07:55:54;8.97;;;6.77;;
50012;SDS011;35901;48.694;9.476;2022-11-04T07:58:20;11.87;;;8.00;;
50012;SDS011;35901;48.694;9.476;2022-11-04T08:00:47;11.17;;;7.67;;
50012;SDS011;35901;48.694;9.476;2022-11-04T08:03:13;12.07;;;8.30;;
50012;SDS011;35901;48.694;9.476;2022-11-04T08:05:39;9.87;;;7.63;;
50012;SDS011;35901;48.694;9.476;2022-11-04T08:08:05;9.53;;;7.50;;
50012;SDS011;35901;48.694;9.476;2022-11-04T08:10:30;8.77;;;7.60;;
50012;SDS011;35901;48.694;9.476;2022-11-04T08:12:56;10.93;;;9.43;;
50012;SDS011;35901;48.694;9.476;2022-11-04T08:15:28;11.50;;;10.30;;
50012;SDS011;35901;48.694;9.476;2022-11-04T08:17:53;9.67;;;8.37;;
50012;SDS011;35901;48.694;9.476;2022-11-04T08:20:19;9.43;;;6.40;;
50012;SDS011;35901;48.694;9.476;2022-11-04T08:22:45;8.73;;;7.10;;
50012;SDS011;35901;48.694;9.476;2022-11-04T08:25:10;10.37;;;6.83;;
50012;SDS011;35901;48.694;9.476;2022-11-04T08:27:37;7.27;;;6.20;;
50012;SDS011;35901;48.694;9.476;2022-11-04T08:30:03;5.80;;;4.83;;
50012;SDS011;35901;48.694;9.476;2022-11-04T08:32:29;4.90;;;4.30;;
50012;SDS011;35901;48.694;9.476;2022-11-04T08:34:55;4.57;;;4.00;;
50012;SDS011;35901;48.694;9.476;2022-11-04T08:37:20;4.07;;;3.60;;
50012;SDS011;35901;48.694;9.476;2022-11-04T08:39:46;4.07;;;3.23;;
50012;SDS011;35901;48.694;9.476;2022-11-04T08:42:11;3.50;;;3.20;;
50012;SDS011;35901;48.694;9.476;2022-11-04T08:44:37;3.53;;;3.23;;
50012;SDS011;35901;48.694;9.476;2022-11-04T08:47:04;3.30;;;3.00;;
50012;SDS011;35901;48.694;9.476;2022-11-04T08:49:29;5.17;;;3.80;;
50012;SDS011;35901;48.694;9.476;2022-11-04T08:51:55;4.00;;;3.60;;
50012;SDS011;35901;48.694;9.476;2022-11-04T08:54:23;4.20;;;3.60;;
50012;SDS011;35901;48.694;9.476;2022-11-04T08:56:50;4.47;;;3.70;;
50012;SDS011;35901;48.694;9.476;2022-11-04T08:59:16;4.43;;;3.27;;
50012;SDS011;35901;48.694;9.476;2022-11-04T09:01:41;3.87;;;3.27;;
50012;SDS011;35901;48.694;9.476;2022-11-04T09:04:09;3.07;;;2.87;;
50012;SDS011;35901;48.694;9.476;2022-11-04T09:06:37;3.53;;;3.23;;
50012;SDS011;35901;48.694;9.476;2022-11-04T09:09:06;3.70;;;3.40;;
50012;SDS011;35901;48.694;9.476;2022-11-04T09:11:35;5.10;;;3.77;;
50012;SDS011;35901;48.694;9.476;2022-11-04T09:14:03;5.20;;;4.00;;
50012;SDS011;35901;48.694;9.476;2022-11-04T09:16:30;5.07;;;3.30;;
50012;SDS011;35901;48.694;9.476;2022-11-04T09:18:57;5.67;;;3.40;;
50012;SDS011;35901;48.694;9.476;2022-11-04T09:21:24;3.63;;;3.10;;
50012;SDS011;35901;48.694;9.476;2022-11-04T09:23:50;3.87;;;3.33;;
50012;SDS011;35901;48.694;9.476;2022-11-04T09:26:16;3.60;;;3.30;;
50012;SDS011;35901;48.694;9.476;2022-11-04T09:28:42;3.10;;;2.77;;
50012;SDS011;35901;48.694;9.476;2022-11-04T09:31:09;2.90;;;2.70;;
50012;SDS011;35901;48.694;9.476;2022-11-04T09:33:39;3.20;;;2.90;;
50012;SDS011;35901;48.694;9.476;2022-11-04T09:36:05;3.47;;;3.17;;
50012;SDS011;35901;48.694;9.476;2022-11-04T09:38:32;3.50;;;3.10;;
50012;SDS011;35901;48.694;9.476;2022-11-04T09:40:59;4.83;;;3.27;;
50012;SDS011;35901;48.694;9.476;2022-11-04T09:43:35;2.90;;;2.67;;
50012;SDS011;35901;48.694;9.476;2022-11-04T09:46:05;2.70;;;2.50;;
50012;SDS011;35901;48.694;9.476;2022-11-04T09:48:39;3.17;;;2.50;;
50012;SDS011;35901;48.694;9.476;2022-11-04T09:51:07;3.20;;;2.40;;
50012;SDS011;35901;48.694;9.476;2022-11-04T09:53:40;3.67;;;3.37;;
50012;SDS011;35901;48.694;9.476;2022-11-04T09:56:20;3.17;;;2.87;;
50012;SDS011;35901;48.694;9.476;2022-11-04T09:58:48;3.87;;;3.37;;
50012;SDS011;35901;48.694;9.476;2022-11-04T10:07:02;2.47;;;2.03;;
50012;SDS011;35901;48.694;9.476;2022-11-04T10:15:03;4.17;;;1.90;;
50012;SDS011;35901;48.694;9.476;2022-11-04T10:23:12;2.90;;;2.20;;
50012;SDS011;35901;48.694;9.476;2022-11-04T10:25:46;2.53;;;2.27;;
50012;SDS011;35901;48.694;9.476;2022-11-04T10:28:15;2.87;;;1.67;;
50012;SDS011;35901;48.694;9.476;2022-11-04T10:30:47;3.13;;;2.07;;
50012;SDS011;35901;48.694;9.476;2022-11-04T10:36:05;1.77;;;1.40;;
50012;SDS011;35901;48.694;9.476;2022-11-04T10:38:37;1.97;;;1.20;;
50012;SDS011;35901;48.694;9.476;2022-11-04T10:41:22;1.40;;;1.30;;
50012;SDS011;35901;48.694;9.476;2022-11-04T10:52:00;2.70;;;1.60;;
50012;SDS011;35901;48.694;9.476;2022-11-04T10:54:26;1.50;;;1.07;;
50012;SDS011;35901;48.694;9.476;2022-11-04T10:56:53;2.57;;;1.10;;
50012;SDS011;35901;48.694;9.476;2022-11-04T10:59:28;1.40;;;1.30;;
50012;SDS011;35901;48.694;9.476;2022-11-04T11:01:58;1.80;;;1.10;;
50012;SDS011;35901;48.694;9.476;2022-11-04T11:04:26;1.77;;;1.20;;
50012;SDS011;35901;48.694;9.476;2022-11-04T11:06:55;0.93;;;0.93;;
50012;SDS011;35901;48.694;9.476;2022-11-04T11:09:24;1.77;;;1.00;;
50012;SDS011;35901;48.694;9.476;2022-11-04T11:12:05;1.20;;;1.10;;
50012;SDS011;35901;48.694;9.476;2022-11-04T11:14:37;1.97;;;1.20;;
50012;SDS011;35901;48.694;9.476;2022-11-04T11:20:01;1.97;;;1.10;;
50012;SDS011;35901;48.694;9.476;2022-11-04T11:22:44;2.77;;;1.20;;
50012;SDS011;35901;48.694;9.476;2022-11-04T11:30:55;2.17;;;1.27;;
50012;SDS011;35901;48.694;9.476;2022-11-04T11:36:03;1.50;;;1.23;;
50012;SDS011;35901;48.694;9.476;2022-11-04T11:38:37;2.20;;;1.40;;
50012;SDS011;35901;48.694;9.476;2022-11-04T11:41:15;1.50;;;1.40;;
50012;SDS011;35901;48.694;9.476;2022-11-04T11:43:48;2.07;;;1.20;;
50012;SDS011;35901;48.694;9.476;2022-11-04T11:46:37;1.20;;;1.10;;
50012;SDS011;35901;48.694;9.476;2022-11-04T11:49:03;2.83;;;1.50;;
50012;SDS011;35901;48.694;9.476;2022-11-04T11:54:14;2.47;;;1.77;;
50012;SDS011;35901;48.694;9.476;2022-11-04T11:56:42;2.43;;;1.27;;
50012;SDS011;35901;48.694;9.476;2022-11-04T11:59:16;2.63;;;1.50;;
50012;SDS011;35901;48.694;9.476;2022-11-04T12:04:49;2.70;;;1.20;;
50012;SDS011;35901;48.694;9.476;2022-11-04T12:07:28;2.47;;;1.40;;
50012;SDS011;35901;48.694;9.476;2022-11-04T12:15:36;2.30;;;1.40;;
50012;SDS011;35901;48.694;9.476;2022-11-04T12:21:05;3.97;;;1.33;;
50012;SDS011;35901;48.694;9.476;2022-11-04T12:30:04;4.50;;;1.80;;
50012;SDS011;35901;48.694;9.476;2022-11-04T12:35:45;2.50;;;1.40;;
50012;SDS011;35901;48.694;9.476;2022-11-04T12:43:27;3.80;;;1.60;;
50012;SDS011;35901;48.694;9.476;2022-11-04T13:00:07;1.90;;;1.00;;
50012;SDS011;35901;48.694;9.476;2022-11-04T13:05:45;2.23;;;1.40;;
50012;SDS011;35901;48.694;9.476;2022-11-04T13:11:06;2.93;;;1.47;;
50012;SDS011;35901;48.694;9.476;2022-11-04T13:13:53;3.70;;;1.47;;
50012;SDS011;35901;48.694;9.476;2022-11-04T13:16:26;2.47;;;1.50;;
50012;SDS011;35901;48.694;9.476;2022-11-04T13:18:53;2.97;;;1.40;;
50012;SDS011;35901;48.694;9.476;2022-11-04T13:21:26;2.90;;;1.30;;
50012;SDS011;35901;48.694;9.476;2022-11-04T13:24:06;4.13;;;1.77;;
50012;SDS011;35901;48.694;9.476;2022-11-04T13:26:45;2.93;;;1.70;;
50012;SDS011;35901;48.694;9.476;2022-11-04T13:29:14;2.17;;;1.50;;
50012;SDS011;35901;48.694;9.476;2022-11-04T13:31:49;4.83;;;1.73;;
50012;SDS011;35901;48.694;9.476;2022-11-04T13:36:58;3.37;;;1.57;;
50012;SDS011;35901;48.694;9.476;2022-11-04T13:39:35;4.53;;;2.20;;
50012;SDS011;35901;48.694;9.476;2022-11-04T13:44:54;2.27;;;1.50;;
50012;SDS011;35901;48.694;9.476;2022-11-04T13:47:28;6.27;;;2.43;;
50012;SDS011;35901;48.694;9.476;2022-11-04T13:50:00;2.40;;;1.80;;
50012;SDS011;35901;48.694;9.476;2022-11-04T13:52:27;3.20;;;1.50;;
50012;SDS011;35901;48.694;9.476;2022-11-04T13:54:57;2.90;;;1.57;;
50012;SDS011;35901;48.694;9.476;2022-11-04T13:57:27;3.17;;;1.60;;
50012;SDS011;35901;48.694;9.476;2022-11-04T14:00:18;2.53;;;1.40;;
50012;SDS011;35901;48.694;9.476;2022-11-04T14:02:47;2.40;;;1.13;;
50012;SDS011;35901;48.694;9.476;2022-11-04T14:16:12;3.20;;;1.40;;
50012;SDS011;35901;48.694;9.476;2022-11-04T14:22:14;6.00;;;2.03;;
50012;SDS011;35901;48.694;9.476;2022-11-04T14:24:41;4.10;;;1.47;;
50012;SDS011;35901;48.694;9.476;2022-11-04T14:27:29;2.83;;;1.40;;
50012;SDS011;35901;48.694;9.476;2022-11-04T14:30:02;2.87;;;1.20;;
50012;SDS011;35901;48.694;9.476;2022-11-04T14:32:38;2.20;;;1.47;;
50012;SDS011;35901;48.694;9.476;2022-11-04T14:35:05;3.63;;;1.70;;
50012;SDS011;35901;48.694;9.476;2022-11-04T14:37:41;4.07;;;1.20;;
50012;SDS011;35901;48.694;9.476;2022-11-04T14:40:18;1.87;;;1.40;;
50012;SDS011;35901;48.694;9.476;2022-11-04T14:42:56;4.57;;;1.47;;
50012;SDS011;35901;48.694;9.476;2022-11-04T14:45:24;3.90;;;1.30;;
50012;SDS011;35901;48.694;9.476;2022-11-04T14:47:54;2.53;;;1.67;;
50012;SDS011;35901;48.694;9.476;2022-11-04T14:50:32;1.57;;;1.27;;
50012;SDS011;35901;48.694;9.476;2022-11-04T14:53:02;2.97;;;1.23;;
50012;SDS011;35901;48.694;9.476;2022-11-04T14:55:29;3.20;;;1.33;;
50012;SDS011;35901;48.694;9.476;2022-11-04T14:57:58;3.07;;;1.43;;
50012;SDS011;35901;48.694;9.476;2022-11-04T15:03:55;2.00;;;1.27;;
50012;SDS011;35901;48.694;9.476;2022-11-04T15:06:03;2.20;;;1.30;;
50012;SDS011;35901;48.694;9.476;2022-11-04T15:16:23;4.40;;;1.30;;
50012;SDS011;35901;48.694;9.476;2022-11-04T15:18:51;1.77;;;1.23;;
50012;SDS011;35901;48.694;9.476;2022-11-04T15:21:18;4.77;;;1.40;;
50012;SDS011;35901;48.694;9.476;2022-11-04T15:23:45;4.13;;;1.40;;
50012;SDS011;35901;48.694;9.476;2022-11-04T15:26:20;1.50;;;1.00;;
50012;SDS011;35901;48.694;9.476;2022-11-04T15:28:49;4.07;;;1.70;;
50012;SDS011;35901;48.694;9.476;2022-11-04T15:31:20;6.57;;;2.97;;
50012;SDS011;35901;48.694;9.476;2022-11-04T15:33:52;3.53;;;1.80;;
50012;SDS011;35901;48.694;9.476;2022-11-04T15:36:21;4.57;;;2.00;;
50012;SDS011;35901;48.694;9.476;2022-11-04T15:39:31;3.93;;;2.10;;
50012;SDS011;35901;48.694;9.476;2022-11-04T15:41:46;3.97;;;2.60;;
50012;SDS011;35901;48.694;9.476;2022-11-04T15:44:35;6.33;;;2.50;;
50012;SDS011;35901;48.694;9.476;2022-11-04T15:49:44;3.70;;;2.33;;
50012;SDS011;35901;48.694;9.476;2022-11-04T15:52:12;5.23;;;2.40;;
50012;SDS011;35901;48.694;9.476;2022-11-04T15:54:42;4.13;;;2.60;;
50012;SDS011;35901;48.694;9.476;2022-11-04T15:57:12;3.13;;;2.50;;
50012;SDS011;35901;48.694;9.476;2022-11-04T15:59:45;4.53;;;2.30;;
50012;SDS011;35901;48.694;9.476;2022-11-04T16:02:24;4.37;;;2.40;;
50012;SDS011;35901;48.694;9.476;2022-11-04T16:07:40;4.83;;;2.40;;
50012;SDS011;35901;48.694;9.476;2022-11-04T16:10:21;4.07;;;3.30;;
50012;SDS011;35901;48.694;9.476;2022-11-04T16:12:55;3.70;;;2.90;;
50012;SDS011;35901;48.694;9.476;2022-11-04T16:18:39;4.30;;;3.30;;
50012;SDS011;35901;48.694;9.476;2022-11-04T16:21:26;5.83;;;3.50;;
50012;SDS011;35901;48.694;9.476;2022-11-04T16:23:58;5.77;;;3.17;;
50012;SDS011;35901;48.694;9.476;2022-11-04T16:26:27;5.77;;;3.00;;
50012;SDS011;35901;48.694;9.476;2022-11-04T16:28:57;3.23;;;2.40;;
50012;SDS011;35901;48.694;9.476;2022-11-04T16:31:24;3.83;;;2.23;;
50012;SDS011;35901;48.694;9.476;2022-11-04T16:33:56;4.03;;;2.43;;
50012;SDS011;35901;48.694;9.476;2022-11-04T16:36:21;4.77;;;2.37;;
50012;SDS011;35901;48.694;9.476;2022-11-04T16:38:54;5.20;;;2.67;;
50012;SDS011;35901;48.694;9.476;2022-11-04T16:41:21;13.40;;;7.43;;
50012;SDS011;35901;48.694;9.476;2022-11-04T16:43:49;22.07;;;12.80;;
50012;SDS011;35901;48.694;9.476;2022-11-04T16:46:15;12.07;;;7.43;;
50012;SDS011;35901;48.694;9.476;2022-11-04T16:48:41;8.87;;;5.43;;
50012;SDS011;35901;48.694;9.476;2022-11-04T16:51:13;8.57;;;5.03;;
50012;SDS011;35901;48.694;9.476;2022-11-04T16:53:47;7.97;;;4.63;;
50012;SDS011;35901;48.694;9.476;2022-11-04T16:56:15;7.07;;;3.97;;
50012;SDS011;35901;48.694;9.476;2022-11-04T16:58:42;4.70;;;3.27;;
50012;SDS011;35901;48.694;9.476;2022-11-04T17:01:11;4.20;;;2.77;;
50012;SDS011;35901;48.694;9.476;2022-11-04T17:03:38;3.67;;;2.60;;
50012;SDS011;35901;48.694;9.476;2022-11-04T17:06:05;3.23;;;2.00;;
50012;SDS011;35901;48.694;9.476;2022-11-04T17:08:31;3.87;;;2.00;;
50012;SDS011;35901;48.694;9.476;2022-11-04T17:10:57;2.30;;;2.10;;
50012;SDS011;35901;48.694;9.476;2022-11-04T17:13:23;2.33;;;2.10;;
50012;SDS011;35901;48.694;9.476;2022-11-04T17:15:48;3.10;;;1.67;;
50012;SDS011;35901;48.694;9.476;2022-11-04T17:18:15;2.40;;;1.80;;
50012;SDS011;35901;48.694;9.476;2022-11-04T17:20:42;2.77;;;1.60;;
50012;SDS011;35901;48.694;9.476;2022-11-04T17:23:13;2.70;;;1.70;;
50012;SDS011;35901;48.694;9.476;2022-11-04T17:25:39;4.07;;;1.90;;
50012;SDS011;35901;48.694;9.476;2022-11-04T17:28:05;3.70;;;2.50;;
50012;SDS011;35901;48.694;9.476;2022-11-04T17:30:31;2.80;;;2.17;;
50012;SDS011;35901;48.694;9.476;2022-11-04T17:32:56;2.50;;;2.30;;
50012;SDS011;35901;48.694;9.476;2022-11-04T17:35:26;3.70;;;3.10;;
50012;SDS011;35901;48.694;9.476;2022-11-04T17:37:52;5.93;;;3.97;;
50012;SDS011;35901;48.694;9.476;2022-11-04T17:40:19;5.03;;;3.90;;
50012;SDS011;35901;48.694;9.476;2022-11-04T17:42:46;3.93;;;3.50;;
50012;SDS011;35901;48.694;9.476;2022-11-04T17:45:31;5.77;;;3.47;;
50012;SDS011;35901;48.694;9.476;2022-11-04T17:48:00;4.60;;;3.43;;
50012;SDS011;35901;48.694;9.476;2022-11-04T17:50:29;4.30;;;3.40;;
50012;SDS011;35901;48.694;9.476;2022-11-04T17:52:56;6.00;;;3.50;;
50012;SDS011;35901;48.694;9.476;2022-11-04T17:55:22;3.43;;;3.13;;
50012;SDS011;35901;48.694;9.476;2022-11-04T17:57:48;4.60;;;3.20;;